createdAt,value
2017-08-29T00:01:09.663Z,68.80
2017-08-29T00:03:37.170Z,68.80
2017-08-29T00:06:04.692Z,69.00
2017-08-29T00:08:32.197Z,69.10
2017-08-29T00:10:59.731Z,69.20
2017-08-29T00:13:27.250Z,69.30
2017-08-29T00:15:54.750Z,69.40
2017-08-29T00:18:22.460Z,69.50
2017-08-29T00:20:49.958Z,69.70
2017-08-29T00:23:17.469Z,69.80
2017-08-29T00:25:45.024Z,69.90
2017-08-29T00:28:12.552Z,69.80
2017-08-29T00:30:40.049Z,70.00
2017-08-29T00:33:07.576Z,70.10
2017-08-29T00:35:35.065Z,70.20
2017-08-29T00:38:02.563Z,70.30
2017-08-29T00:40:30.099Z,70.40
2017-08-29T00:42:57.611Z,70.40
2017-08-29T00:45:25.146Z,70.50
2017-08-29T00:47:52.656Z,70.60
2017-08-29T00:50:20.163Z,70.70
2017-08-29T00:52:47.683Z,70.80
2017-08-29T00:55:15.182Z,70.80
2017-08-29T00:57:42.713Z,70.80
2017-08-29T01:00:10.210Z,71.00
2017-08-29T01:02:37.711Z,70.90
2017-08-29T01:05:05.241Z,71.00
2017-08-29T01:07:33.504Z,71.20
2017-08-29T01:10:01.025Z,71.10
2017-08-29T01:12:29.684Z,71.70
2017-08-29T01:14:57.177Z,71.10
2017-08-29T01:17:24.700Z,71.20
2017-08-29T01:19:52.189Z,71.30
2017-08-29T01:22:19.713Z,71.30
2017-08-29T01:24:47.238Z,71.30
2017-08-29T01:27:14.741Z,71.40
2017-08-29T01:29:42.263Z,71.50
2017-08-29T01:32:09.752Z,71.40
2017-08-29T01:34:37.278Z,71.40
2017-08-29T01:37:04.779Z,71.50
2017-08-29T01:39:32.319Z,71.60
2017-08-29T01:41:59.889Z,71.60
2017-08-29T01:44:27.390Z,71.60
2017-08-29T01:46:54.920Z,71.70
2017-08-29T01:49:22.409Z,71.70
2017-08-29T01:51:49.901Z,71.70
2017-08-29T01:54:17.421Z,71.80
2017-08-29T01:56:44.911Z,71.80
2017-08-29T01:59:12.434Z,71.80
2017-08-29T02:01:39.981Z,71.80
2017-08-29T02:04:07.476Z,71.90
2017-08-29T02:06:34.977Z,71.90
2017-08-29T02:09:02.501Z,71.80
2017-08-29T02:11:30.006Z,71.80
2017-08-29T02:13:57.492Z,71.90
2017-08-29T02:16:25.005Z,72.00
2017-08-29T02:18:52.497Z,72.10
2017-08-29T02:21:20.007Z,72.00
2017-08-29T02:23:47.498Z,72.10
2017-08-29T02:26:15.033Z,72.10
2017-08-29T02:28:42.538Z,72.10
2017-08-29T02:31:10.033Z,72.10
2017-08-29T02:33:37.553Z,72.10
2017-08-29T02:36:05.058Z,72.20
2017-08-29T02:38:32.586Z,72.10
2017-08-29T02:41:00.101Z,72.20
2017-08-29T02:43:27.639Z,72.10
2017-08-29T02:45:55.133Z,72.20
2017-08-29T02:48:22.643Z,72.10
2017-08-29T02:50:50.149Z,72.20
2017-08-29T02:53:17.666Z,72.30
2017-08-29T02:55:45.161Z,72.30
2017-08-29T02:58:12.681Z,72.30
2017-08-29T03:00:40.177Z,72.30
2017-08-29T03:03:07.713Z,72.30
2017-08-29T03:05:35.214Z,72.40
2017-08-29T03:08:02.724Z,72.30
2017-08-29T03:10:30.238Z,72.40
2017-08-29T03:12:57.724Z,72.50
2017-08-29T03:15:25.221Z,72.50
2017-08-29T03:17:52.752Z,72.50
2017-08-29T03:20:20.260Z,72.50
2017-08-29T03:22:47.789Z,72.60
2017-08-29T03:25:15.293Z,72.60
2017-08-29T03:27:42.803Z,72.70
2017-08-29T03:30:10.347Z,72.80
2017-08-29T03:32:37.845Z,72.80
2017-08-29T03:35:05.349Z,72.70
2017-08-29T03:37:32.882Z,72.80
2017-08-29T03:40:00.402Z,72.80
2017-08-29T03:42:27.926Z,72.80
2017-08-29T03:44:55.432Z,72.90
2017-08-29T03:47:23.375Z,72.90
2017-08-29T03:49:51.581Z,72.90
2017-08-29T03:52:19.561Z,72.90
2017-08-29T03:54:49.185Z,72.90
2017-08-29T03:57:16.796Z,72.80
2017-08-29T03:59:45.848Z,72.90
2017-08-29T04:02:14.377Z,72.80
2017-08-29T04:04:41.893Z,72.90
2017-08-29T04:07:10.212Z,72.90
2017-08-29T04:09:42.208Z,72.90
2017-08-29T04:12:09.804Z,73.00
2017-08-29T04:14:37.346Z,73.00
2017-08-29T04:17:05.275Z,73.10
2017-08-29T04:19:32.855Z,73.10
2017-08-29T04:22:01.034Z,73.00
2017-08-29T04:24:29.190Z,73.10
2017-08-29T04:26:56.715Z,73.10
2017-08-29T04:29:24.207Z,73.10
2017-08-29T04:31:51.704Z,73.10
2017-08-29T04:34:19.254Z,73.10
2017-08-29T04:36:46.744Z,73.10
2017-08-29T04:39:14.238Z,73.10
2017-08-29T04:41:41.769Z,73.10
2017-08-29T04:44:09.303Z,73.20
2017-08-29T04:46:36.798Z,73.30
2017-08-29T04:49:04.299Z,73.30
2017-08-29T04:51:31.814Z,73.30
2017-08-29T04:53:59.344Z,73.30
2017-08-29T04:56:26.847Z,73.30
2017-08-29T04:58:54.344Z,73.30
2017-08-29T05:01:21.889Z,73.30
2017-08-29T05:03:50.145Z,73.20
2017-08-29T05:06:17.673Z,73.20
2017-08-29T05:08:45.173Z,73.30
2017-08-29T05:11:12.714Z,73.40
2017-08-29T05:13:40.234Z,73.40
2017-08-29T05:16:07.751Z,73.50
2017-08-29T05:18:35.276Z,73.60
2017-08-29T05:21:02.821Z,73.60
2017-08-29T05:23:30.350Z,73.70
2017-08-29T05:25:57.853Z,73.70
2017-08-29T05:28:25.354Z,73.70
2017-08-29T05:30:52.878Z,73.80
2017-08-29T05:33:20.373Z,73.80
2017-08-29T05:35:47.899Z,73.80
2017-08-29T05:38:15.398Z,73.90
2017-08-29T05:40:42.945Z,74.00
2017-08-29T05:43:10.442Z,74.10
2017-08-29T05:45:37.932Z,74.20
2017-08-29T05:48:05.471Z,74.30
2017-08-29T05:50:33.005Z,74.50
2017-08-29T05:53:00.503Z,74.50
2017-08-29T05:55:28.032Z,74.70
2017-08-29T05:57:55.530Z,74.80
2017-08-29T06:00:23.062Z,74.80
2017-08-29T06:02:50.559Z,75.00
2017-08-29T06:05:19.200Z,75.10
2017-08-29T06:07:46.707Z,75.10
2017-08-29T06:10:14.205Z,75.20
2017-08-29T06:12:41.723Z,75.30
2017-08-29T06:15:09.229Z,75.30
2017-08-29T06:17:36.768Z,75.40
2017-08-29T06:20:05.150Z,75.50
2017-08-29T06:22:32.645Z,75.60
2017-08-29T06:25:00.178Z,75.60
2017-08-29T06:27:27.715Z,75.70
2017-08-29T06:29:55.210Z,75.70
2017-08-29T06:32:22.701Z,75.80
2017-08-29T06:34:50.221Z,75.90
2017-08-29T06:37:17.722Z,75.80
2017-08-29T06:39:45.248Z,75.80
2017-08-29T06:42:12.751Z,75.90
2017-08-29T06:44:40.244Z,75.80
2017-08-29T06:47:07.773Z,75.90
2017-08-29T06:49:35.269Z,75.80
2017-08-29T06:52:02.798Z,75.90
2017-08-29T06:54:30.338Z,75.90
2017-08-29T06:56:57.838Z,76.00
2017-08-29T06:59:25.337Z,75.80
2017-08-29T07:01:52.858Z,75.90
2017-08-29T07:04:20.361Z,75.80
2017-08-29T07:06:47.888Z,75.80
2017-08-29T07:09:15.409Z,75.70
2017-08-29T07:11:42.909Z,75.60
2017-08-29T07:14:10.444Z,75.50
2017-08-29T07:16:37.946Z,75.50
2017-08-29T07:19:05.433Z,75.20
2017-08-29T07:21:33.723Z,74.90
2017-08-29T07:24:01.220Z,74.90
2017-08-29T07:26:28.739Z,74.70
2017-08-29T07:28:56.275Z,74.40
2017-08-29T07:31:23.817Z,74.20
2017-08-29T07:33:51.311Z,73.90
2017-08-29T07:36:18.804Z,73.60
2017-08-29T07:38:46.339Z,73.30
2017-08-29T07:41:13.842Z,73.10
2017-08-29T07:43:41.335Z,73.00
2017-08-29T07:46:08.872Z,72.80
2017-08-29T07:48:36.372Z,72.60
2017-08-29T07:51:03.884Z,72.40
2017-08-29T07:53:31.430Z,72.20
2017-08-29T07:55:58.940Z,71.90
2017-08-29T07:58:26.431Z,71.90
2017-08-29T08:00:53.959Z,72.30
2017-08-29T08:03:21.463Z,71.50
2017-08-29T08:05:49.005Z,71.30
2017-08-29T08:08:16.504Z,71.20
2017-08-29T08:10:44.007Z,71.10
2017-08-29T08:13:11.525Z,70.90
2017-08-29T08:15:39.026Z,70.50
2017-08-29T08:18:06.557Z,70.00
2017-08-29T08:20:34.070Z,69.90
2017-08-29T08:23:01.605Z,69.50
2017-08-29T08:25:29.103Z,69.50
2017-08-29T08:27:56.614Z,69.40
2017-08-29T08:30:24.151Z,69.30
2017-08-29T08:32:51.659Z,69.20
2017-08-29T08:35:19.164Z,69.50
2017-08-29T08:37:46.690Z,68.40
2017-08-29T08:40:14.180Z,68.80
2017-08-29T08:42:41.714Z,69.20
2017-08-29T08:45:09.209Z,69.50
2017-08-29T08:47:36.700Z,69.90
2017-08-29T08:50:04.238Z,70.20
2017-08-29T08:52:31.737Z,70.30
2017-08-29T08:54:59.239Z,70.60
2017-08-29T08:57:26.770Z,70.70
2017-08-29T08:59:54.270Z,70.70
2017-08-29T09:02:21.790Z,70.60
2017-08-29T09:04:49.294Z,70.30
2017-08-29T09:07:16.840Z,70.10
2017-08-29T09:09:44.337Z,70.10
2017-08-29T09:12:11.858Z,70.30
2017-08-29T09:14:39.398Z,70.00
2017-08-29T09:17:06.898Z,70.20
2017-08-29T09:19:34.406Z,70.20
2017-08-29T09:22:01.936Z,70.50
2017-08-29T09:24:29.465Z,70.40
2017-08-29T09:26:56.968Z,70.40
2017-08-29T09:29:24.493Z,70.70
2017-08-29T09:31:51.991Z,70.70
2017-08-29T09:34:19.484Z,70.90
2017-08-29T09:36:46.996Z,71.10
2017-08-29T09:39:14.492Z,71.00
2017-08-29T09:41:42.012Z,70.90
2017-08-29T09:44:09.523Z,71.30
2017-08-29T09:46:37.037Z,71.10
2017-08-29T09:49:04.564Z,71.20
2017-08-29T09:51:32.091Z,71.00
2017-08-29T09:53:59.606Z,70.90
2017-08-29T09:56:27.097Z,70.80
2017-08-29T09:58:54.632Z,70.80
2017-08-29T10:01:22.128Z,70.60
2017-08-29T10:03:49.653Z,70.40
2017-08-29T10:06:17.157Z,70.30
2017-08-29T10:08:44.683Z,70.00
2017-08-29T10:11:12.219Z,69.10
2017-08-29T10:13:39.722Z,68.10
2017-08-29T10:16:07.252Z,67.00
2017-08-29T10:18:34.792Z,66.80
2017-08-29T10:21:02.299Z,66.20
2017-08-29T10:23:29.788Z,66.00
2017-08-29T10:25:57.305Z,65.50
2017-08-29T10:28:24.796Z,65.20
2017-08-29T10:30:52.338Z,65.10
2017-08-29T10:33:19.857Z,64.60
2017-08-29T10:35:47.361Z,64.10
2017-08-29T10:38:14.889Z,64.10
2017-08-29T10:40:42.417Z,63.80
2017-08-29T10:43:09.923Z,63.90
2017-08-29T10:45:37.437Z,61.30
2017-08-29T10:48:04.930Z,61.90
2017-08-29T10:50:32.453Z,61.70
2017-08-29T10:52:59.945Z,61.90
2017-08-29T10:55:27.460Z,61.90
2017-08-29T10:57:54.957Z,61.90
2017-08-29T11:00:22.495Z,61.80
2017-08-29T11:02:49.994Z,61.50
2017-08-29T11:05:17.519Z,60.30
2017-08-29T11:07:45.042Z,59.50
2017-08-29T11:10:12.536Z,59.70
2017-08-29T11:12:40.086Z,59.80
2017-08-29T11:15:07.585Z,59.40
2017-08-29T11:17:35.086Z,59.30
2017-08-29T11:20:02.837Z,59.30
2017-08-29T11:22:30.330Z,59.80
2017-08-29T11:24:57.834Z,59.30
2017-08-29T11:27:25.360Z,59.10
2017-08-29T11:29:52.890Z,58.80
2017-08-29T11:32:20.388Z,58.70
2017-08-29T11:34:47.886Z,58.50
2017-08-29T11:37:15.409Z,58.60
2017-08-29T11:39:42.919Z,58.40
2017-08-29T11:42:10.457Z,58.40
2017-08-29T11:44:38.014Z,58.30
2017-08-29T11:47:05.551Z,58.20
2017-08-29T11:49:33.054Z,58.50
2017-08-29T11:52:00.548Z,58.40
2017-08-29T11:54:28.077Z,58.30
2017-08-29T11:56:55.603Z,58.40
2017-08-29T11:59:23.158Z,58.60
2017-08-29T12:01:50.677Z,57.80
2017-08-29T12:04:18.206Z,57.10
2017-08-29T12:06:45.717Z,56.40
2017-08-29T12:09:13.236Z,56.50
2017-08-29T12:11:40.766Z,56.70
2017-08-29T12:14:08.264Z,57.20
2017-08-29T12:16:35.784Z,57.10
2017-08-29T12:19:03.289Z,57.10
2017-08-29T12:21:30.785Z,57.00
2017-08-29T12:23:58.329Z,56.60
2017-08-29T12:26:25.813Z,56.60
2017-08-29T12:28:53.305Z,56.40
2017-08-29T12:31:20.848Z,56.10
2017-08-29T12:33:48.348Z,56.10
2017-08-29T12:36:15.846Z,55.80
2017-08-29T12:38:43.390Z,55.90
2017-08-29T12:41:10.883Z,55.70
2017-08-29T12:43:38.374Z,55.40
2017-08-29T12:46:05.915Z,55.30
2017-08-29T12:48:33.455Z,55.00
2017-08-29T12:51:00.957Z,54.90
2017-08-29T12:53:28.453Z,54.50
2017-08-29T12:55:55.985Z,54.60
2017-08-29T12:58:23.486Z,54.40
2017-08-29T13:00:50.989Z,54.20
2017-08-29T13:03:18.512Z,53.80
2017-08-29T13:05:46.006Z,52.70
2017-08-29T13:08:13.526Z,52.90
2017-08-29T13:10:41.027Z,52.70
2017-08-29T13:13:08.554Z,53.10
2017-08-29T13:15:36.041Z,52.90
2017-08-29T13:18:03.528Z,52.70
2017-08-29T13:20:31.053Z,52.50
2017-08-29T13:22:58.545Z,52.20
2017-08-29T13:25:26.086Z,52.40
2017-08-29T13:27:53.579Z,51.90
2017-08-29T13:30:21.087Z,52.30
2017-08-29T13:32:48.610Z,52.70
2017-08-29T13:35:16.127Z,52.20
2017-08-29T13:37:43.633Z,51.90
2017-08-29T13:40:11.170Z,51.60
2017-08-29T13:42:38.670Z,51.10
2017-08-29T13:45:06.178Z,50.90
2017-08-29T13:47:33.707Z,50.70
2017-08-29T13:50:01.217Z,50.90
2017-08-29T13:52:28.739Z,50.90
2017-08-29T13:54:56.242Z,51.00
2017-08-29T13:57:24.510Z,50.70
2017-08-29T13:59:52.135Z,50.60
2017-08-29T14:02:19.686Z,50.40
2017-08-29T14:04:47.265Z,50.20
2017-08-29T14:07:14.771Z,50.00
2017-08-29T14:09:42.277Z,49.70
2017-08-29T14:12:09.802Z,49.20
2017-08-29T14:14:37.317Z,49.20
2017-08-29T14:17:04.809Z,49.30
2017-08-29T14:19:32.423Z,48.90
2017-08-29T14:21:59.954Z,47.90
2017-08-29T14:24:27.484Z,47.40
2017-08-29T14:26:55.238Z,46.90
2017-08-29T14:29:22.778Z,47.50
2017-08-29T14:31:50.282Z,47.50
2017-08-29T14:34:17.856Z,47.60
2017-08-29T14:36:45.348Z,47.80
2017-08-29T14:39:12.845Z,47.20
2017-08-29T14:41:40.369Z,46.80
2017-08-29T14:44:07.904Z,47.20
2017-08-29T14:46:47.476Z,46.30
2017-08-29T14:49:15.002Z,46.20
2017-08-29T14:51:42.501Z,44.50
2017-08-29T14:54:10.026Z,44.20
2017-08-29T14:56:37.548Z,43.60
2017-08-29T14:59:05.040Z,44.00
2017-08-29T15:01:32.561Z,43.50
2017-08-29T15:04:00.085Z,43.20
2017-08-29T15:06:27.608Z,43.20
2017-08-29T15:08:55.149Z,42.60
2017-08-29T15:11:22.653Z,40.90
2017-08-29T15:13:50.148Z,40.80
2017-08-29T15:16:17.689Z,41.00
2017-08-29T15:18:45.185Z,40.90
2017-08-29T15:21:12.690Z,41.10
2017-08-29T15:23:40.213Z,40.70
2017-08-29T15:26:07.759Z,40.10
2017-08-29T15:28:35.267Z,39.30
2017-08-29T15:31:02.772Z,39.70
2017-08-29T15:33:30.337Z,38.20
2017-08-29T15:35:58.232Z,38.40
2017-08-29T15:38:25.758Z,38.30
2017-08-29T15:40:53.422Z,36.80
2017-08-29T15:43:21.079Z,36.30
2017-08-29T15:45:48.941Z,35.70
2017-08-29T15:48:17.300Z,34.80
2017-08-29T15:50:44.995Z,33.90
2017-08-29T15:53:12.598Z,34.20
2017-08-29T15:55:40.238Z,33.70
2017-08-29T15:58:08.315Z,31.90
2017-08-29T16:00:36.032Z,31.90
2017-08-29T16:03:03.724Z,31.80
2017-08-29T16:05:31.433Z,31.60
2017-08-29T16:07:59.066Z,30.90
2017-08-29T16:10:26.747Z,29.70
2017-08-29T16:12:54.333Z,29.80
2017-08-29T16:15:21.867Z,28.60
2017-08-29T16:17:49.361Z,28.50
2017-08-29T16:20:16.991Z,27.80
2017-08-29T16:22:44.577Z,27.60
2017-08-29T16:25:12.147Z,27.50
2017-08-29T16:27:39.731Z,26.60
2017-08-29T16:30:07.340Z,27.20
2017-08-29T16:32:34.861Z,27.80
2017-08-29T16:35:02.405Z,28.50
2017-08-29T16:37:30.080Z,29.40
2017-08-29T16:39:58.397Z,33.30
2017-08-29T16:42:25.968Z,33.30
2017-08-29T16:44:53.569Z,34.80
2017-08-29T16:47:21.105Z,36.60
2017-08-29T16:49:48.670Z,38.50
2017-08-29T16:52:16.229Z,40.10
2017-08-29T16:54:43.733Z,41.40
2017-08-29T16:57:11.329Z,42.60
2017-08-29T16:59:38.887Z,43.70
2017-08-29T17:02:06.423Z,44.80
2017-08-29T17:04:34.040Z,45.80
2017-08-29T17:07:01.570Z,46.70
2017-08-29T17:09:29.146Z,47.40
2017-08-29T17:11:56.680Z,48.20
2017-08-29T17:14:24.186Z,48.80
2017-08-29T17:16:51.700Z,49.30
2017-08-29T17:19:19.246Z,49.70
2017-08-29T17:21:46.853Z,50.20
2017-08-29T17:24:14.438Z,50.50
2017-08-29T17:26:42.121Z,51.00
2017-08-29T17:29:09.738Z,51.50
2017-08-29T17:31:37.279Z,51.90
2017-08-29T17:34:04.775Z,52.10
2017-08-29T17:36:32.452Z,52.30
2017-08-29T17:38:59.949Z,52.70
2017-08-29T17:41:27.507Z,52.90
2017-08-29T17:43:55.190Z,53.20
2017-08-29T17:46:22.762Z,53.30
2017-08-29T17:48:50.407Z,53.50
2017-08-29T17:51:17.961Z,53.90
2017-08-29T17:53:45.662Z,54.20
2017-08-29T17:56:13.305Z,54.50
2017-08-29T17:58:40.905Z,54.80
2017-08-29T18:01:08.636Z,55.10
2017-08-29T18:03:36.170Z,55.20
2017-08-29T18:06:03.746Z,55.30
2017-08-29T18:08:31.307Z,55.80
2017-08-29T18:10:58.845Z,55.50
2017-08-29T18:13:26.391Z,55.60
2017-08-29T18:15:53.920Z,55.80
2017-08-29T18:18:21.481Z,55.90
2017-08-29T18:20:48.986Z,56.50
2017-08-29T18:23:16.636Z,56.10
2017-08-29T18:25:44.284Z,56.20
2017-08-29T18:28:11.960Z,56.20
2017-08-29T18:30:39.454Z,56.20
2017-08-29T18:33:07.019Z,56.40
2017-08-29T18:35:34.659Z,56.40
2017-08-29T18:38:02.158Z,56.50
2017-08-29T18:40:29.722Z,56.60
2017-08-29T18:42:57.222Z,56.70
2017-08-29T18:45:25.821Z,56.80
2017-08-29T18:47:53.648Z,56.90
2017-08-29T18:50:22.142Z,57.00
2017-08-29T18:52:49.642Z,57.10
2017-08-29T18:55:17.190Z,57.30
2017-08-29T18:57:44.694Z,57.30
2017-08-29T19:00:12.236Z,57.40
2017-08-29T19:02:39.843Z,57.40
2017-08-29T19:05:07.355Z,57.50
2017-08-29T19:07:34.907Z,57.50
2017-08-29T19:10:02.404Z,57.60
2017-08-29T19:12:29.984Z,57.70
2017-08-29T19:14:57.493Z,57.90
2017-08-29T19:17:25.985Z,58.00
2017-08-29T19:19:53.494Z,57.90
2017-08-29T19:22:21.386Z,58.00
2017-08-29T19:24:48.890Z,58.10
2017-08-29T19:27:16.414Z,57.80
2017-08-29T19:29:44.079Z,57.90
2017-08-29T19:32:11.575Z,57.90
2017-08-29T19:34:39.096Z,57.70
2017-08-29T19:37:06.617Z,57.70
2017-08-29T19:39:34.134Z,57.80
2017-08-29T19:42:01.804Z,57.70
2017-08-29T19:44:29.394Z,58.00
2017-08-29T19:46:56.966Z,58.00
2017-08-29T19:49:24.547Z,58.20
2017-08-29T19:51:52.089Z,58.30
2017-08-29T19:54:19.574Z,58.30
2017-08-29T19:56:47.089Z,58.20
2017-08-29T19:59:14.596Z,58.20
2017-08-29T20:01:42.111Z,58.30
2017-08-29T20:04:09.610Z,58.40
2017-08-29T20:06:37.120Z,58.50
2017-08-29T20:09:04.613Z,58.60
2017-08-29T20:11:32.236Z,58.50
2017-08-29T20:13:59.737Z,58.60
2017-08-29T20:16:27.250Z,58.50
2017-08-29T20:18:54.767Z,58.50
2017-08-29T20:21:22.264Z,58.50
2017-08-29T20:23:49.766Z,58.60
2017-08-29T20:26:17.306Z,58.60
2017-08-29T20:28:44.801Z,58.50
2017-08-29T20:31:12.306Z,58.70
2017-08-29T20:33:39.827Z,58.70
2017-08-29T20:36:07.332Z,58.80
2017-08-29T20:38:34.820Z,58.80
2017-08-29T20:41:02.329Z,58.80
2017-08-29T20:43:29.822Z,58.70
2017-08-29T20:45:57.326Z,58.60
2017-08-29T20:48:24.845Z,58.40
2017-08-29T20:50:52.357Z,58.10
2017-08-29T20:53:19.881Z,57.90
2017-08-29T20:55:47.375Z,57.80
2017-08-29T20:58:14.873Z,57.60
2017-08-29T21:00:42.397Z,57.60
2017-08-29T21:03:09.898Z,57.70
2017-08-29T21:05:37.418Z,57.70
2017-08-29T21:08:04.913Z,57.70
2017-08-29T21:10:32.408Z,57.90
2017-08-29T21:12:59.925Z,58.00
2017-08-29T21:15:27.418Z,58.10
2017-08-29T21:17:54.934Z,58.20
2017-08-29T21:20:22.435Z,58.30
2017-08-29T21:22:49.934Z,58.40
2017-08-29T21:25:17.471Z,58.40
2017-08-29T21:27:44.978Z,58.50
2017-08-29T21:30:12.468Z,58.40
2017-08-29T21:32:40.022Z,58.40
2017-08-29T21:35:07.524Z,58.40
2017-08-29T21:37:35.069Z,58.40
2017-08-29T21:40:02.585Z,58.80
2017-08-29T21:42:30.082Z,58.10
2017-08-29T21:44:57.600Z,58.10
2017-08-29T21:47:25.104Z,58.00
2017-08-29T21:49:52.618Z,57.70
2017-08-29T21:52:20.117Z,57.80
2017-08-29T21:54:47.642Z,57.70
2017-08-29T21:57:15.133Z,57.60
2017-08-29T21:59:42.639Z,57.50
2017-08-29T22:02:10.400Z,57.40
2017-08-29T22:04:37.893Z,57.40
2017-08-29T22:07:05.405Z,57.40
2017-08-29T22:09:32.923Z,57.40
2017-08-29T22:12:00.431Z,57.60
2017-08-29T22:14:27.930Z,57.20
2017-08-29T22:16:55.442Z,57.20
2017-08-29T22:19:22.946Z,57.20
2017-08-29T22:21:50.576Z,57.20
2017-08-29T22:24:18.094Z,57.30
2017-08-29T22:26:45.604Z,57.40
2017-08-29T22:29:13.114Z,57.40
2017-08-29T22:31:40.618Z,57.30
2017-08-29T22:34:08.153Z,57.20
2017-08-29T22:36:35.654Z,56.90
2017-08-29T22:39:03.177Z,56.90
2017-08-29T22:41:30.670Z,56.90
2017-08-29T22:43:58.164Z,56.90
2017-08-29T22:46:25.683Z,57.00
2017-08-29T22:48:53.182Z,57.00
2017-08-29T22:51:20.699Z,57.00
2017-08-29T22:53:48.198Z,57.10
2017-08-29T22:56:15.718Z,57.30
2017-08-29T22:58:43.219Z,57.30
2017-08-29T23:01:10.737Z,57.50
2017-08-29T23:03:38.233Z,57.60
2017-08-29T23:06:05.729Z,57.60
2017-08-29T23:08:33.332Z,57.70
2017-08-29T23:11:00.837Z,57.60
2017-08-29T23:13:28.333Z,57.80
2017-08-29T23:15:55.855Z,58.00
2017-08-29T23:18:23.348Z,58.10
2017-08-29T23:20:50.870Z,58.10
2017-08-29T23:23:18.382Z,58.20
2017-08-29T23:25:45.879Z,58.20
2017-08-29T23:28:13.360Z,58.30
2017-08-29T23:30:40.882Z,58.30
2017-08-29T23:33:08.390Z,58.10
2017-08-29T23:35:35.912Z,58.00
2017-08-29T23:38:03.402Z,58.00
2017-08-29T23:40:30.910Z,57.90
2017-08-29T23:42:58.428Z,57.80
2017-08-29T23:45:25.928Z,57.80
2017-08-29T23:47:53.436Z,57.80
2017-08-29T23:50:20.934Z,57.60
2017-08-29T23:52:48.428Z,57.70
2017-08-29T23:55:15.939Z,57.60
2017-08-29T23:57:43.439Z,57.70
